Eshcol, Pennsylvania
Current Conditions -  °F | °C
As of 12:53 PM on Monday 24 Nov 2014 (Local Time) from KSEG Reporting Station
Few Clouds Few Clouds  
Wind Chill: 70°   Ceiling: Unl
Heat Index: 70°   Visibility: 10mi
Dew Point: 54°   Wind: 18mph
Humidity: 57%   Direction: 180°S
Pressure: 29.49"   Gusts: 28mph
Location:  40.5551°N, 77.1135°W
Report Text: KSEG 241753Z AUTO 18016G24KT 150V210 10SM FEW039 21/12 A2949 RMK AO2 SLP983 T02110122 10211 20167 58034
Loading
Personal Weather Stations






























Interactive Weather Map New forecast layout! Learn more

10-Day Weather Forecast

Advertisements
Track Severe Weather on mobile